KFAR/FAR METAR and TAF weather

Enter ICAO airport designator
Station Type Date Time Source
KFAR METAR 2020/09/25 06:53 UTC NOAA

KFAR 250653Z 17015G22KT 10SM CLR 17/14 A2968 RMK AO2 SLP048 T01720139


Station Type Date Time Source
KFAR Decoded METAR 2020/09/25 06:53 UTC NOAA

HECTOR INTERNATIONAL AIRPORT , ND, United States (KFAR) 46-56N 096-49W 277M
Sep 25, 2020 - 02:53 AM EDT / 2020.09.25 0653 UTC
Wind: from the S (170 degrees) at 17 MPH (15 KT) gusting to 25 MPH (22 KT):0
Visibility: 10 mile(s):0
Sky conditions: clear
Temperature: 63.0 F (17.2 C)
Dew Point: 57.0 F (13.9 C)
Relative Humidity: 80%
Pressure (altimeter): 29.68 in. Hg (1005 hPa)
ob: KFAR 250653Z 17015G22KT 10SM CLR 17/14 A2968 RMK AO2 SLP048 T01720139
cycle: 7

Station Type Date Time Source
KFAR TAF 2020/09/25 06:22 UTC NOAA

TAF KFAR 250520Z 2506/2606 16014KT P6SM SCT250
FM250900 17008KT P6SM BKN200
FM251500 27012KT P6SM BKN150

Example: see airport list